Airfield :







YOU CAN JOIN US ON...

 
LOGIN :

Register | Disclaimer

   EN    FR    IT 

 









Legend :    VFR   Marginal VFR   IFR   Intensive IFR   Very Intensive IFR
Visi :
Ceiling :
>= 8 km
>= 3000ft
5 to 8 km
1000 to 3000 ft
1500m to 5 km
500 to 1000 ft
800 to 1500m
200 to 500 ft
< 800m
< 200 ft
Symbols :   Thunderstorms  Fog  Heavy snow  Heavy precipitations  Wind > 20 kt







- Airport Elevation : 454 ft


KIZG - Eastern Slopes Regional

CURRENT METAR :
  • 200005Z AUTO 00000KT 10SM BKN025 OVC031 16/12 A3011 RMK AO2 T01610122

EXPIRED METARs :
  • 192354Z AUTO 00000KT 10SM OVC030 16/13 A3010 RMK AO2 SLP195 T01610128 10183 20156 53024
  • 192346Z AUTO 00000KT 10SM OVC030 16/13 A3010 RMK AO2 T01610128
  • 192254Z AUTO 00000KT 10SM OVC029 17/12 A3008 RMK AO2 SLP186 T01670122
  • 192230Z AUTO 00000KT 10SM BKN027 OVC050 17/13 A3007 RMK AO2 T01670128
  • 192219Z AUTO 09003KT 10SM SCT027 SCT036 OVC050 17/13 A3006 RMK AO2 T01670128
  • 192154Z AUTO 00000KT 10SM OVC027 17/13 A3005 RMK AO2 SLP178 T01670128

TAF N/A
KZBW FIR / North America



MET'MAP, your aeronautical weather chart ! - Copyright ORBIFLY December 2007 - Disclaimer

ORBIFLY MET'MAP TEAM :

Programming & Development : Alexandra Zaïnal
Concept & Development : Baudouin d'Aumeries
Co-Development & Prog : Marc-Olivier Méhu
Technical & hardware support : Manuel Goepfert

Contact : metmap@orbifly.com




SOURCES & CREDITS :

   NOAA